sensor_id;sensor_type;location;lat;lon;timestamp;P1;durP1;ratioP1;P2;durP2;ratioP2
14191;SDS011;7177;48.572;7.838;2023-05-29T00:01:31;12.73;;;6.47;;
14191;SDS011;7177;48.572;7.838;2023-05-29T00:03:56;10.07;;;5.60;;
14191;SDS011;7177;48.572;7.838;2023-05-29T00:06:22;7.63;;;4.90;;
14191;SDS011;7177;48.572;7.838;2023-05-29T00:08:48;9.97;;;5.60;;
14191;SDS011;7177;48.572;7.838;2023-05-29T00:11:14;9.63;;;6.00;;
14191;SDS011;7177;48.572;7.838;2023-05-29T00:13:39;8.37;;;5.60;;
14191;SDS011;7177;48.572;7.838;2023-05-29T00:16:05;9.53;;;5.13;;
14191;SDS011;7177;48.572;7.838;2023-05-29T00:18:31;8.63;;;5.33;;
14191;SDS011;7177;48.572;7.838;2023-05-29T00:20:57;10.10;;;6.07;;
14191;SDS011;7177;48.572;7.838;2023-05-29T00:23:22;11.03;;;6.47;;
14191;SDS011;7177;48.572;7.838;2023-05-29T00:25:48;9.63;;;5.63;;
14191;SDS011;7177;48.572;7.838;2023-05-29T00:28:13;8.40;;;5.80;;
14191;SDS011;7177;48.572;7.838;2023-05-29T00:30:39;9.33;;;5.97;;
14191;SDS011;7177;48.572;7.838;2023-05-29T00:33:05;9.50;;;5.40;;
14191;SDS011;7177;48.572;7.838;2023-05-29T00:35:30;7.27;;;5.43;;
14191;SDS011;7177;48.572;7.838;2023-05-29T00:37:56;8.53;;;5.47;;
14191;SDS011;7177;48.572;7.838;2023-05-29T00:40:22;11.27;;;5.83;;
14191;SDS011;7177;48.572;7.838;2023-05-29T00:42:48;7.27;;;5.00;;
14191;SDS011;7177;48.572;7.838;2023-05-29T00:45:13;10.30;;;6.27;;
14191;SDS011;7177;48.572;7.838;2023-05-29T00:47:40;6.63;;;5.17;;
14191;SDS011;7177;48.572;7.838;2023-05-29T00:50:07;9.83;;;5.97;;
14191;SDS011;7177;48.572;7.838;2023-05-29T00:52:33;9.03;;;6.30;;
14191;SDS011;7177;48.572;7.838;2023-05-29T00:54:59;9.80;;;6.03;;
14191;SDS011;7177;48.572;7.838;2023-05-29T00:57:27;8.77;;;6.27;;
14191;SDS011;7177;48.572;7.838;2023-05-29T00:59:53;10.97;;;6.27;;
14191;SDS011;7177;48.572;7.838;2023-05-29T01:02:20;10.00;;;5.87;;
14191;SDS011;7177;48.572;7.838;2023-05-29T01:04:46;9.60;;;6.70;;
14191;SDS011;7177;48.572;7.838;2023-05-29T01:07:13;9.70;;;6.07;;
14191;SDS011;7177;48.572;7.838;2023-05-29T01:09:40;11.60;;;6.70;;
14191;SDS011;7177;48.572;7.838;2023-05-29T01:20:48;8.27;;;6.17;;
14191;SDS011;7177;48.572;7.838;2023-05-29T01:26:23;12.43;;;6.10;;
14191;SDS011;7177;48.572;7.838;2023-05-29T01:29:00;12.37;;;6.50;;
14191;SDS011;7177;48.572;7.838;2023-05-29T01:31:28;9.57;;;6.60;;
14191;SDS011;7177;48.572;7.838;2023-05-29T01:33:56;11.93;;;6.57;;
14191;SDS011;7177;48.572;7.838;2023-05-29T01:36:23;13.20;;;6.53;;
14191;SDS011;7177;48.572;7.838;2023-05-29T01:38:53;10.27;;;6.70;;
14191;SDS011;7177;48.572;7.838;2023-05-29T01:41:21;9.93;;;6.10;;
14191;SDS011;7177;48.572;7.838;2023-05-29T01:43:48;13.37;;;6.57;;
14191;SDS011;7177;48.572;7.838;2023-05-29T01:46:15;10.33;;;6.10;;
14191;SDS011;7177;48.572;7.838;2023-05-29T01:48:42;11.40;;;6.30;;
14191;SDS011;7177;48.572;7.838;2023-05-29T01:51:08;9.73;;;6.33;;
14191;SDS011;7177;48.572;7.838;2023-05-29T01:53:41;10.23;;;6.70;;
14191;SDS011;7177;48.572;7.838;2023-05-29T01:56:07;10.67;;;6.13;;
14191;SDS011;7177;48.572;7.838;2023-05-29T01:58:34;9.60;;;6.27;;
14191;SDS011;7177;48.572;7.838;2023-05-29T02:01:03;11.83;;;6.30;;
14191;SDS011;7177;48.572;7.838;2023-05-29T02:03:29;10.37;;;6.33;;
14191;SDS011;7177;48.572;7.838;2023-05-29T02:05:55;12.20;;;6.60;;
14191;SDS011;7177;48.572;7.838;2023-05-29T02:08:24;9.37;;;5.93;;
14191;SDS011;7177;48.572;7.838;2023-05-29T02:10:49;9.03;;;6.10;;
14191;SDS011;7177;48.572;7.838;2023-05-29T02:13:15;10.37;;;6.60;;
14191;SDS011;7177;48.572;7.838;2023-05-29T02:15:41;11.87;;;6.40;;
14191;SDS011;7177;48.572;7.838;2023-05-29T02:18:10;11.33;;;6.50;;
14191;SDS011;7177;48.572;7.838;2023-05-29T02:20:37;12.53;;;6.67;;
14191;SDS011;7177;48.572;7.838;2023-05-29T02:23:03;8.97;;;5.87;;
14191;SDS011;7177;48.572;7.838;2023-05-29T02:25:28;14.90;;;6.83;;
14191;SDS011;7177;48.572;7.838;2023-05-29T02:27:54;13.83;;;6.97;;
14191;SDS011;7177;48.572;7.838;2023-05-29T02:30:19;13.63;;;6.20;;
14191;SDS011;7177;48.572;7.838;2023-05-29T02:32:45;10.10;;;5.73;;
14191;SDS011;7177;48.572;7.838;2023-05-29T02:35:11;11.13;;;6.10;;
14191;SDS011;7177;48.572;7.838;2023-05-29T02:37:40;10.70;;;6.50;;
14191;SDS011;7177;48.572;7.838;2023-05-29T02:40:06;10.70;;;6.07;;
14191;SDS011;7177;48.572;7.838;2023-05-29T02:42:32;10.33;;;6.93;;
14191;SDS011;7177;48.572;7.838;2023-05-29T02:44:58;12.63;;;6.43;;
14191;SDS011;7177;48.572;7.838;2023-05-29T02:47:23;8.07;;;5.70;;
14191;SDS011;7177;48.572;7.838;2023-05-29T02:49:49;12.10;;;6.37;;
14191;SDS011;7177;48.572;7.838;2023-05-29T02:52:14;11.60;;;6.30;;
14191;SDS011;7177;48.572;7.838;2023-05-29T02:54:40;10.07;;;6.13;;
14191;SDS011;7177;48.572;7.838;2023-05-29T02:57:05;10.03;;;6.50;;
14191;SDS011;7177;48.572;7.838;2023-05-29T02:59:31;9.50;;;5.73;;
14191;SDS011;7177;48.572;7.838;2023-05-29T03:01:57;8.87;;;5.67;;
14191;SDS011;7177;48.572;7.838;2023-05-29T03:04:22;7.57;;;5.40;;
14191;SDS011;7177;48.572;7.838;2023-05-29T03:06:48;8.53;;;5.23;;
14191;SDS011;7177;48.572;7.838;2023-05-29T03:09:13;8.67;;;5.33;;
14191;SDS011;7177;48.572;7.838;2023-05-29T03:11:41;9.87;;;5.53;;
14191;SDS011;7177;48.572;7.838;2023-05-29T03:14:08;7.90;;;5.40;;
14191;SDS011;7177;48.572;7.838;2023-05-29T03:16:33;13.10;;;5.90;;
14191;SDS011;7177;48.572;7.838;2023-05-29T03:19:00;8.37;;;5.43;;
14191;SDS011;7177;48.572;7.838;2023-05-29T03:21:26;9.80;;;5.77;;
14191;SDS011;7177;48.572;7.838;2023-05-29T03:23:52;10.90;;;5.63;;
14191;SDS011;7177;48.572;7.838;2023-05-29T03:26:17;7.40;;;5.47;;
14191;SDS011;7177;48.572;7.838;2023-05-29T03:28:43;6.90;;;4.93;;
14191;SDS011;7177;48.572;7.838;2023-05-29T03:31:08;7.57;;;5.33;;
14191;SDS011;7177;48.572;7.838;2023-05-29T03:33:38;9.23;;;5.37;;
14191;SDS011;7177;48.572;7.838;2023-05-29T03:36:03;7.57;;;4.90;;
14191;SDS011;7177;48.572;7.838;2023-05-29T03:38:30;9.37;;;5.33;;
14191;SDS011;7177;48.572;7.838;2023-05-29T03:40:55;6.27;;;4.87;;
14191;SDS011;7177;48.572;7.838;2023-05-29T03:43:21;9.17;;;5.77;;
14191;SDS011;7177;48.572;7.838;2023-05-29T03:45:46;7.33;;;5.47;;
14191;SDS011;7177;48.572;7.838;2023-05-29T03:48:12;10.57;;;5.57;;
14191;SDS011;7177;48.572;7.838;2023-05-29T03:50:39;9.23;;;5.90;;
14191;SDS011;7177;48.572;7.838;2023-05-29T03:53:04;7.87;;;5.40;;
14191;SDS011;7177;48.572;7.838;2023-05-29T03:55:30;11.50;;;5.63;;
14191;SDS011;7177;48.572;7.838;2023-05-29T03:57:56;7.57;;;5.33;;
14191;SDS011;7177;48.572;7.838;2023-05-29T04:00:22;9.83;;;5.47;;
14191;SDS011;7177;48.572;7.838;2023-05-29T04:02:47;11.20;;;5.43;;
14191;SDS011;7177;48.572;7.838;2023-05-29T04:05:13;10.27;;;5.20;;
14191;SDS011;7177;48.572;7.838;2023-05-29T04:07:38;7.47;;;5.23;;
14191;SDS011;7177;48.572;7.838;2023-05-29T04:10:05;9.87;;;5.43;;
14191;SDS011;7177;48.572;7.838;2023-05-29T04:12:31;9.97;;;5.60;;
14191;SDS011;7177;48.572;7.838;2023-05-29T04:14:57;10.07;;;5.73;;
14191;SDS011;7177;48.572;7.838;2023-05-29T04:17:23;7.13;;;4.83;;
14191;SDS011;7177;48.572;7.838;2023-05-29T04:19:48;11.77;;;6.23;;
14191;SDS011;7177;48.572;7.838;2023-05-29T04:22:14;8.40;;;5.00;;
14191;SDS011;7177;48.572;7.838;2023-05-29T04:24:40;10.10;;;4.73;;
14191;SDS011;7177;48.572;7.838;2023-05-29T04:27:07;9.67;;;5.17;;
14191;SDS011;7177;48.572;7.838;2023-05-29T04:29:38;7.03;;;4.77;;
14191;SDS011;7177;48.572;7.838;2023-05-29T04:32:05;7.73;;;5.13;;
14191;SDS011;7177;48.572;7.838;2023-05-29T04:34:31;9.60;;;4.80;;
14191;SDS011;7177;48.572;7.838;2023-05-29T04:36:57;7.93;;;5.43;;
14191;SDS011;7177;48.572;7.838;2023-05-29T04:39:23;8.23;;;5.27;;
14191;SDS011;7177;48.572;7.838;2023-05-29T04:41:49;7.27;;;4.87;;
14191;SDS011;7177;48.572;7.838;2023-05-29T04:44:16;6.47;;;4.10;;
14191;SDS011;7177;48.572;7.838;2023-05-29T04:46:42;6.50;;;4.60;;
14191;SDS011;7177;48.572;7.838;2023-05-29T04:49:09;8.00;;;5.23;;
14191;SDS011;7177;48.572;7.838;2023-05-29T04:51:35;5.67;;;4.53;;
14191;SDS011;7177;48.572;7.838;2023-05-29T04:54:01;8.17;;;4.53;;
14191;SDS011;7177;48.572;7.838;2023-05-29T04:56:27;9.87;;;5.07;;
14191;SDS011;7177;48.572;7.838;2023-05-29T04:58:53;9.87;;;4.80;;
14191;SDS011;7177;48.572;7.838;2023-05-29T05:01:19;6.43;;;5.00;;
14191;SDS011;7177;48.572;7.838;2023-05-29T05:03:44;8.87;;;5.60;;
14191;SDS011;7177;48.572;7.838;2023-05-29T05:06:10;11.70;;;5.00;;
14191;SDS011;7177;48.572;7.838;2023-05-29T05:08:37;13.87;;;5.03;;
14191;SDS011;7177;48.572;7.838;2023-05-29T05:11:03;6.00;;;4.50;;
14191;SDS011;7177;48.572;7.838;2023-05-29T05:13:29;6.90;;;4.53;;
14191;SDS011;7177;48.572;7.838;2023-05-29T05:15:54;5.63;;;4.10;;
14191;SDS011;7177;48.572;7.838;2023-05-29T05:18:20;7.93;;;4.37;;
14191;SDS011;7177;48.572;7.838;2023-05-29T05:20:45;5.73;;;4.23;;
14191;SDS011;7177;48.572;7.838;2023-05-29T05:23:11;10.03;;;5.10;;
14191;SDS011;7177;48.572;7.838;2023-05-29T05:25:37;6.57;;;4.30;;
14191;SDS011;7177;48.572;7.838;2023-05-29T05:28:03;7.73;;;4.33;;
14191;SDS011;7177;48.572;7.838;2023-05-29T05:30:30;10.07;;;4.37;;
14191;SDS011;7177;48.572;7.838;2023-05-29T05:32:55;8.33;;;4.53;;
14191;SDS011;7177;48.572;7.838;2023-05-29T05:35:21;7.07;;;4.30;;
14191;SDS011;7177;48.572;7.838;2023-05-29T05:37:47;8.20;;;4.40;;
14191;SDS011;7177;48.572;7.838;2023-05-29T05:40:12;8.73;;;4.13;;
14191;SDS011;7177;48.572;7.838;2023-05-29T05:42:38;9.70;;;4.57;;
14191;SDS011;7177;48.572;7.838;2023-05-29T05:45:04;6.40;;;3.90;;
14191;SDS011;7177;48.572;7.838;2023-05-29T05:47:31;7.37;;;3.97;;
14191;SDS011;7177;48.572;7.838;2023-05-29T05:49:57;11.07;;;4.20;;
14191;SDS011;7177;48.572;7.838;2023-05-29T05:52:23;8.37;;;4.40;;
14191;SDS011;7177;48.572;7.838;2023-05-29T05:54:49;7.73;;;4.20;;
14191;SDS011;7177;48.572;7.838;2023-05-29T05:57:15;5.53;;;4.07;;
14191;SDS011;7177;48.572;7.838;2023-05-29T05:59:40;6.87;;;4.03;;
14191;SDS011;7177;48.572;7.838;2023-05-29T06:02:06;6.67;;;4.00;;
14191;SDS011;7177;48.572;7.838;2023-05-29T06:04:31;8.47;;;4.20;;
14191;SDS011;7177;48.572;7.838;2023-05-29T06:06:57;5.53;;;3.67;;
14191;SDS011;7177;48.572;7.838;2023-05-29T06:09:23;7.80;;;4.30;;
14191;SDS011;7177;48.572;7.838;2023-05-29T06:11:49;9.13;;;3.73;;
14191;SDS011;7177;48.572;7.838;2023-05-29T06:14:15;6.73;;;4.07;;
14191;SDS011;7177;48.572;7.838;2023-05-29T06:16:41;7.43;;;3.93;;
14191;SDS011;7177;48.572;7.838;2023-05-29T06:19:07;8.27;;;4.00;;
14191;SDS011;7177;48.572;7.838;2023-05-29T06:21:33;6.30;;;3.77;;
14191;SDS011;7177;48.572;7.838;2023-05-29T06:23:58;8.47;;;4.17;;
14191;SDS011;7177;48.572;7.838;2023-05-29T06:26:24;6.33;;;3.73;;
14191;SDS011;7177;48.572;7.838;2023-05-29T06:28:52;10.07;;;5.40;;
14191;SDS011;7177;48.572;7.838;2023-05-29T06:31:18;7.60;;;4.30;;
14191;SDS011;7177;48.572;7.838;2023-05-29T06:33:44;7.07;;;4.00;;
14191;SDS011;7177;48.572;7.838;2023-05-29T06:36:10;6.53;;;4.70;;
14191;SDS011;7177;48.572;7.838;2023-05-29T06:38:36;6.33;;;3.93;;
14191;SDS011;7177;48.572;7.838;2023-05-29T06:41:02;6.07;;;3.57;;
14191;SDS011;7177;48.572;7.838;2023-05-29T06:43:28;5.50;;;3.57;;
14191;SDS011;7177;48.572;7.838;2023-05-29T06:45:54;5.80;;;3.87;;
14191;SDS011;7177;48.572;7.838;2023-05-29T06:48:19;7.70;;;3.80;;
14191;SDS011;7177;48.572;7.838;2023-05-29T06:50:45;11.37;;;4.23;;
14191;SDS011;7177;48.572;7.838;2023-05-29T06:53:12;6.00;;;3.70;;
14191;SDS011;7177;48.572;7.838;2023-05-29T06:55:37;6.83;;;3.80;;
14191;SDS011;7177;48.572;7.838;2023-05-29T06:58:05;6.13;;;3.60;;
14191;SDS011;7177;48.572;7.838;2023-05-29T07:00:31;7.80;;;4.00;;
14191;SDS011;7177;48.572;7.838;2023-05-29T07:02:56;6.30;;;3.40;;
14191;SDS011;7177;48.572;7.838;2023-05-29T07:05:22;6.03;;;4.33;;
14191;SDS011;7177;48.572;7.838;2023-05-29T07:07:47;9.47;;;5.07;;
14191;SDS011;7177;48.572;7.838;2023-05-29T07:10:13;7.43;;;3.77;;
14191;SDS011;7177;48.572;7.838;2023-05-29T07:12:39;5.93;;;3.77;;
14191;SDS011;7177;48.572;7.838;2023-05-29T07:15:04;10.30;;;4.03;;
14191;SDS011;7177;48.572;7.838;2023-05-29T07:17:30;5.40;;;3.47;;
14191;SDS011;7177;48.572;7.838;2023-05-29T07:19:56;6.33;;;3.60;;
14191;SDS011;7177;48.572;7.838;2023-05-29T07:22:21;9.47;;;3.60;;
14191;SDS011;7177;48.572;7.838;2023-05-29T07:24:46;8.63;;;4.13;;
14191;SDS011;7177;48.572;7.838;2023-05-29T07:27:12;5.33;;;3.47;;
14191;SDS011;7177;48.572;7.838;2023-05-29T07:29:38;9.10;;;3.83;;
14191;SDS011;7177;48.572;7.838;2023-05-29T07:32:03;6.40;;;3.87;;
14191;SDS011;7177;48.572;7.838;2023-05-29T07:34:29;5.60;;;3.77;;
14191;SDS011;7177;48.572;7.838;2023-05-29T07:39:33;6.53;;;3.57;;
14191;SDS011;7177;48.572;7.838;2023-05-29T07:42:00;7.20;;;3.37;;
14191;SDS011;7177;48.572;7.838;2023-05-29T07:44:28;6.93;;;3.87;;
14191;SDS011;7177;48.572;7.838;2023-05-29T07:46:54;7.97;;;3.83;;
14191;SDS011;7177;48.572;7.838;2023-05-29T07:49:20;7.13;;;3.90;;
14191;SDS011;7177;48.572;7.838;2023-05-29T07:51:46;11.07;;;3.90;;
14191;SDS011;7177;48.572;7.838;2023-05-29T07:54:11;5.33;;;3.47;;
14191;SDS011;7177;48.572;7.838;2023-05-29T07:56:37;8.00;;;3.90;;
14191;SDS011;7177;48.572;7.838;2023-05-29T07:59:03;5.50;;;3.50;;
14191;SDS011;7177;48.572;7.838;2023-05-29T08:01:29;14.57;;;7.87;;
14191;SDS011;7177;48.572;7.838;2023-05-29T08:03:54;8.60;;;4.57;;
14191;SDS011;7177;48.572;7.838;2023-05-29T08:06:20;9.67;;;3.80;;
14191;SDS011;7177;48.572;7.838;2023-05-29T08:08:46;8.40;;;3.60;;
14191;SDS011;7177;48.572;7.838;2023-05-29T08:11:11;7.27;;;3.97;;
14191;SDS011;7177;48.572;7.838;2023-05-29T08:13:37;7.07;;;3.53;;
14191;SDS011;7177;48.572;7.838;2023-05-29T08:16:03;5.43;;;3.47;;
14191;SDS011;7177;48.572;7.838;2023-05-29T08:18:30;5.53;;;3.80;;
14191;SDS011;7177;48.572;7.838;2023-05-29T08:20:57;6.83;;;3.50;;
14191;SDS011;7177;48.572;7.838;2023-05-29T08:23:23;7.37;;;4.03;;
14191;SDS011;7177;48.572;7.838;2023-05-29T08:25:49;8.00;;;3.90;;
14191;SDS011;7177;48.572;7.838;2023-05-29T08:28:14;6.60;;;3.60;;
14191;SDS011;7177;48.572;7.838;2023-05-29T08:30:40;6.63;;;3.80;;
14191;SDS011;7177;48.572;7.838;2023-05-29T08:33:06;5.40;;;3.87;;
14191;SDS011;7177;48.572;7.838;2023-05-29T08:35:32;5.93;;;3.73;;
14191;SDS011;7177;48.572;7.838;2023-05-29T08:37:58;5.40;;;3.83;;
14191;SDS011;7177;48.572;7.838;2023-05-29T08:40:23;6.27;;;4.17;;
14191;SDS011;7177;48.572;7.838;2023-05-29T08:42:51;7.73;;;3.90;;
14191;SDS011;7177;48.572;7.838;2023-05-29T08:45:24;8.23;;;3.87;;
14191;SDS011;7177;48.572;7.838;2023-05-29T08:47:51;5.90;;;4.23;;
14191;SDS011;7177;48.572;7.838;2023-05-29T08:50:19;7.57;;;4.00;;
14191;SDS011;7177;48.572;7.838;2023-05-29T08:52:46;8.67;;;3.93;;
14191;SDS011;7177;48.572;7.838;2023-05-29T08:55:11;10.17;;;4.50;;
14191;SDS011;7177;48.572;7.838;2023-05-29T08:57:37;8.80;;;4.63;;
14191;SDS011;7177;48.572;7.838;2023-05-29T09:00:04;8.03;;;3.83;;
14191;SDS011;7177;48.572;7.838;2023-05-29T09:02:37;6.63;;;3.63;;
14191;SDS011;7177;48.572;7.838;2023-05-29T09:05:06;7.07;;;4.17;;
14191;SDS011;7177;48.572;7.838;2023-05-29T09:07:32;7.57;;;4.10;;
14191;SDS011;7177;48.572;7.838;2023-05-29T09:09:59;8.27;;;3.80;;
14191;SDS011;7177;48.572;7.838;2023-05-29T09:12:25;4.63;;;3.67;;
14191;SDS011;7177;48.572;7.838;2023-05-29T09:14:51;7.57;;;3.67;;
14191;SDS011;7177;48.572;7.838;2023-05-29T09:17:17;9.10;;;4.50;;
14191;SDS011;7177;48.572;7.838;2023-05-29T09:19:42;8.17;;;4.50;;
14191;SDS011;7177;48.572;7.838;2023-05-29T09:22:10;7.67;;;4.60;;
14191;SDS011;7177;48.572;7.838;2023-05-29T09:24:39;6.47;;;4.20;;
14191;SDS011;7177;48.572;7.838;2023-05-29T09:27:06;7.30;;;3.93;;
14191;SDS011;7177;48.572;7.838;2023-05-29T09:29:36;8.07;;;3.97;;
14191;SDS011;7177;48.572;7.838;2023-05-29T09:32:10;12.43;;;4.27;;
14191;SDS011;7177;48.572;7.838;2023-05-29T09:34:38;6.90;;;4.20;;
14191;SDS011;7177;48.572;7.838;2023-05-29T09:37:08;7.00;;;3.70;;
14191;SDS011;7177;48.572;7.838;2023-05-29T09:39:43;7.03;;;4.03;;
14191;SDS011;7177;48.572;7.838;2023-05-29T09:42:10;9.13;;;3.80;;
14191;SDS011;7177;48.572;7.838;2023-05-29T09:44:36;7.50;;;4.07;;
14191;SDS011;7177;48.572;7.838;2023-05-29T09:47:02;8.67;;;4.07;;
14191;SDS011;7177;48.572;7.838;2023-05-29T09:49:29;6.67;;;4.10;;
14191;SDS011;7177;48.572;7.838;2023-05-29T09:51:56;7.20;;;3.40;;
14191;SDS011;7177;48.572;7.838;2023-05-29T09:54:24;10.43;;;3.90;;
14191;SDS011;7177;48.572;7.838;2023-05-29T09:56:54;5.57;;;3.80;;
14191;SDS011;7177;48.572;7.838;2023-05-29T09:59:23;6.37;;;4.47;;
14191;SDS011;7177;48.572;7.838;2023-05-29T10:01:49;6.67;;;4.20;;
14191;SDS011;7177;48.572;7.838;2023-05-29T10:04:29;8.47;;;3.90;;
14191;SDS011;7177;48.572;7.838;2023-05-29T10:06:57;6.90;;;4.23;;
14191;SDS011;7177;48.572;7.838;2023-05-29T10:09:27;7.00;;;4.20;;
14191;SDS011;7177;48.572;7.838;2023-05-29T10:11:53;6.70;;;4.20;;
14191;SDS011;7177;48.572;7.838;2023-05-29T10:14:23;6.53;;;4.37;;
14191;SDS011;7177;48.572;7.838;2023-05-29T10:16:50;7.80;;;3.83;;
14191;SDS011;7177;48.572;7.838;2023-05-29T10:19:21;8.40;;;4.27;;
14191;SDS011;7177;48.572;7.838;2023-05-29T10:21:51;7.03;;;4.20;;
14191;SDS011;7177;48.572;7.838;2023-05-29T10:24:18;8.17;;;3.90;;
14191;SDS011;7177;48.572;7.838;2023-05-29T10:26:46;11.40;;;4.30;;
14191;SDS011;7177;48.572;7.838;2023-05-29T10:29:26;7.83;;;4.50;;
14191;SDS011;7177;48.572;7.838;2023-05-29T10:34:47;8.40;;;3.90;;
14191;SDS011;7177;48.572;7.838;2023-05-29T10:37:35;5.73;;;4.23;;
14191;SDS011;7177;48.572;7.838;2023-05-29T10:40:06;5.67;;;3.87;;
14191;SDS011;7177;48.572;7.838;2023-05-29T10:42:48;5.77;;;3.90;;
14191;SDS011;7177;48.572;7.838;2023-05-29T10:46:02;6.97;;;4.07;;
14191;SDS011;7177;48.572;7.838;2023-05-29T10:50:41;7.97;;;3.90;;
14191;SDS011;7177;48.572;7.838;2023-05-29T10:53:07;6.47;;;3.90;;
14191;SDS011;7177;48.572;7.838;2023-05-29T10:55:35;6.43;;;3.90;;
14191;SDS011;7177;48.572;7.838;2023-05-29T10:58:05;5.00;;;3.60;;
14191;SDS011;7177;48.572;7.838;2023-05-29T11:00:39;8.43;;;4.30;;
14191;SDS011;7177;48.572;7.838;2023-05-29T11:03:09;12.93;;;4.40;;
14191;SDS011;7177;48.572;7.838;2023-05-29T11:05:57;10.00;;;4.30;;
14191;SDS011;7177;48.572;7.838;2023-05-29T11:08:32;5.00;;;3.73;;
14191;SDS011;7177;48.572;7.838;2023-05-29T11:11:07;8.87;;;4.20;;
14191;SDS011;7177;48.572;7.838;2023-05-29T11:13:40;10.20;;;3.80;;
14191;SDS011;7177;48.572;7.838;2023-05-29T11:18:50;6.60;;;3.90;;
14191;SDS011;7177;48.572;7.838;2023-05-29T11:21:26;8.30;;;4.03;;
14191;SDS011;7177;48.572;7.838;2023-05-29T11:24:03;9.97;;;3.83;;
14191;SDS011;7177;48.572;7.838;2023-05-29T11:26:32;9.53;;;3.67;;
14191;SDS011;7177;48.572;7.838;2023-05-29T11:28:59;6.47;;;4.43;;
14191;SDS011;7177;48.572;7.838;2023-05-29T11:31:26;8.80;;;3.90;;
14191;SDS011;7177;48.572;7.838;2023-05-29T11:33:56;10.53;;;4.03;;
14191;SDS011;7177;48.572;7.838;2023-05-29T11:36:25;8.50;;;4.73;;
14191;SDS011;7177;48.572;7.838;2023-05-29T11:38:52;8.33;;;5.10;;
14191;SDS011;7177;48.572;7.838;2023-05-29T11:41:18;8.17;;;4.60;;
14191;SDS011;7177;48.572;7.838;2023-05-29T11:43:43;6.70;;;5.10;;
14191;SDS011;7177;48.572;7.838;2023-05-29T11:46:17;11.50;;;4.43;;
14191;SDS011;7177;48.572;7.838;2023-05-29T11:48:46;5.00;;;4.50;;
14191;SDS011;7177;48.572;7.838;2023-05-29T11:51:12;6.93;;;3.70;;
14191;SDS011;7177;48.572;7.838;2023-05-29T11:53:42;6.97;;;4.40;;
14191;SDS011;7177;48.572;7.838;2023-05-29T11:56:08;5.83;;;3.97;;
14191;SDS011;7177;48.572;7.838;2023-05-29T11:58:36;6.00;;;3.80;;
14191;SDS011;7177;48.572;7.838;2023-05-29T12:01:05;6.23;;;3.80;;
14191;SDS011;7177;48.572;7.838;2023-05-29T12:03:42;11.57;;;4.13;;
14191;SDS011;7177;48.572;7.838;2023-05-29T12:06:08;6.43;;;4.17;;
14191;SDS011;7177;48.572;7.838;2023-05-29T12:08:35;12.07;;;4.20;;
14191;SDS011;7177;48.572;7.838;2023-05-29T12:11:01;7.17;;;3.63;;
14191;SDS011;7177;48.572;7.838;2023-05-29T12:13:26;6.73;;;3.57;;
14191;SDS011;7177;48.572;7.838;2023-05-29T12:15:53;7.70;;;3.83;;
14191;SDS011;7177;48.572;7.838;2023-05-29T12:18:22;7.90;;;4.47;;
14191;SDS011;7177;48.572;7.838;2023-05-29T12:20:47;5.40;;;3.97;;
14191;SDS011;7177;48.572;7.838;2023-05-29T12:23:13;7.30;;;3.97;;
14191;SDS011;7177;48.572;7.838;2023-05-29T12:25:39;7.67;;;4.17;;
14191;SDS011;7177;48.572;7.838;2023-05-29T12:28:05;7.17;;;3.73;;
14191;SDS011;7177;48.572;7.838;2023-05-29T12:30:31;6.67;;;3.90;;
14191;SDS011;7177;48.572;7.838;2023-05-29T12:33:02;8.33;;;4.13;;
14191;SDS011;7177;48.572;7.838;2023-05-29T12:35:28;9.20;;;3.97;;
14191;SDS011;7177;48.572;7.838;2023-05-29T12:37:58;6.43;;;3.87;;
14191;SDS011;7177;48.572;7.838;2023-05-29T12:40:26;6.30;;;3.87;;
14191;SDS011;7177;48.572;7.838;2023-05-29T12:42:59;6.80;;;4.00;;
14191;SDS011;7177;48.572;7.838;2023-05-29T12:45:26;9.37;;;5.10;;
14191;SDS011;7177;48.572;7.838;2023-05-29T12:47:54;7.10;;;4.07;;
14191;SDS011;7177;48.572;7.838;2023-05-29T12:50:22;6.13;;;3.90;;
14191;SDS011;7177;48.572;7.838;2023-05-29T12:52:55;6.87;;;4.27;;
14191;SDS011;7177;48.572;7.838;2023-05-29T12:55:23;8.57;;;4.40;;
14191;SDS011;7177;48.572;7.838;2023-05-29T12:57:50;8.33;;;3.90;;
14191;SDS011;7177;48.572;7.838;2023-05-29T13:00:16;7.93;;;3.93;;
14191;SDS011;7177;48.572;7.838;2023-05-29T13:02:43;7.17;;;3.90;;
14191;SDS011;7177;48.572;7.838;2023-05-29T13:05:09;5.70;;;4.00;;
14191;SDS011;7177;48.572;7.838;2023-05-29T13:07:35;9.53;;;4.10;;
14191;SDS011;7177;48.572;7.838;2023-05-29T13:10:01;9.77;;;4.10;;
14191;SDS011;7177;48.572;7.838;2023-05-29T13:12:29;7.27;;;3.67;;
14191;SDS011;7177;48.572;7.838;2023-05-29T13:14:55;12.87;;;3.80;;
14191;SDS011;7177;48.572;7.838;2023-05-29T13:17:23;5.93;;;3.90;;
14191;SDS011;7177;48.572;7.838;2023-05-29T13:19:49;8.27;;;3.80;;
14191;SDS011;7177;48.572;7.838;2023-05-29T13:22:14;9.80;;;3.87;;
14191;SDS011;7177;48.572;7.838;2023-05-29T13:24:40;5.67;;;3.73;;
14191;SDS011;7177;48.572;7.838;2023-05-29T13:27:06;5.80;;;3.63;;
14191;SDS011;7177;48.572;7.838;2023-05-29T13:29:31;8.57;;;4.00;;
14191;SDS011;7177;48.572;7.838;2023-05-29T13:31:57;5.23;;;3.70;;
14191;SDS011;7177;48.572;7.838;2023-05-29T13:34:22;4.80;;;3.60;;
14191;SDS011;7177;48.572;7.838;2023-05-29T13:36:54;10.00;;;3.57;;
14191;SDS011;7177;48.572;7.838;2023-05-29T13:39:20;7.83;;;3.63;;
14191;SDS011;7177;48.572;7.838;2023-05-29T13:41:45;12.50;;;3.57;;
14191;SDS011;7177;48.572;7.838;2023-05-29T13:44:11;13.93;;;3.87;;
14191;SDS011;7177;48.572;7.838;2023-05-29T13:46:37;5.40;;;3.60;;
14191;SDS011;7177;48.572;7.838;2023-05-29T13:49:02;5.07;;;3.03;;
14191;SDS011;7177;48.572;7.838;2023-05-29T13:51:28;10.00;;;3.83;;
14191;SDS011;7177;48.572;7.838;2023-05-29T13:53:53;5.90;;;3.73;;
14191;SDS011;7177;48.572;7.838;2023-05-29T13:56:19;4.30;;;3.23;;
14191;SDS011;7177;48.572;7.838;2023-05-29T13:58:44;5.60;;;3.63;;
14191;SDS011;7177;48.572;7.838;2023-05-29T14:01:10;5.03;;;3.77;;
14191;SDS011;7177;48.572;7.838;2023-05-29T14:03:35;7.47;;;3.83;;
14191;SDS011;7177;48.572;7.838;2023-05-29T14:06:01;6.27;;;3.60;;
14191;SDS011;7177;48.572;7.838;2023-05-29T14:08:30;5.53;;;3.60;;
14191;SDS011;7177;48.572;7.838;2023-05-29T14:10:55;10.60;;;3.63;;
14191;SDS011;7177;48.572;7.838;2023-05-29T14:13:21;9.07;;;4.07;;
14191;SDS011;7177;48.572;7.838;2023-05-29T14:15:46;4.27;;;3.00;;
14191;SDS011;7177;48.572;7.838;2023-05-29T14:18:14;4.83;;;3.27;;
14191;SDS011;7177;48.572;7.838;2023-05-29T14:20:39;5.03;;;2.97;;
14191;SDS011;7177;48.572;7.838;2023-05-29T14:23:05;7.73;;;3.60;;
14191;SDS011;7177;48.572;7.838;2023-05-29T14:25:30;6.67;;;3.60;;
14191;SDS011;7177;48.572;7.838;2023-05-29T14:27:56;7.07;;;3.87;;
14191;SDS011;7177;48.572;7.838;2023-05-29T14:30:21;5.00;;;3.90;;
14191;SDS011;7177;48.572;7.838;2023-05-29T14:32:47;4.77;;;3.40;;
14191;SDS011;7177;48.572;7.838;2023-05-29T14:35:13;5.87;;;3.90;;
14191;SDS011;7177;48.572;7.838;2023-05-29T14:37:38;10.73;;;3.53;;
14191;SDS011;7177;48.572;7.838;2023-05-29T14:40:04;6.43;;;3.57;;
14191;SDS011;7177;48.572;7.838;2023-05-29T14:42:30;5.47;;;3.23;;
14191;SDS011;7177;48.572;7.838;2023-05-29T14:44:57;8.53;;;3.47;;
14191;SDS011;7177;48.572;7.838;2023-05-29T14:47:23;4.60;;;3.27;;
14191;SDS011;7177;48.572;7.838;2023-05-29T14:49:48;4.43;;;3.40;;
14191;SDS011;7177;48.572;7.838;2023-05-29T14:52:14;7.43;;;3.60;;
14191;SDS011;7177;48.572;7.838;2023-05-29T14:54:39;5.67;;;3.83;;
14191;SDS011;7177;48.572;7.838;2023-05-29T14:57:05;5.23;;;3.87;;
14191;SDS011;7177;48.572;7.838;2023-05-29T14:59:30;5.13;;;3.83;;
14191;SDS011;7177;48.572;7.838;2023-05-29T15:01:56;3.90;;;3.40;;
14191;SDS011;7177;48.572;7.838;2023-05-29T15:04:23;6.00;;;3.33;;
14191;SDS011;7177;48.572;7.838;2023-05-29T15:06:49;7.43;;;3.87;;
14191;SDS011;7177;48.572;7.838;2023-05-29T15:09:14;5.27;;;3.60;;
14191;SDS011;7177;48.572;7.838;2023-05-29T15:11:40;4.87;;;3.43;;
14191;SDS011;7177;48.572;7.838;2023-05-29T15:14:05;8.80;;;3.77;;
14191;SDS011;7177;48.572;7.838;2023-05-29T15:16:31;5.03;;;3.90;;
14191;SDS011;7177;48.572;7.838;2023-05-29T15:18:56;5.10;;;3.23;;